Time;durP1;ratioP1;P1;durP2;ratioP2;P2;SDS_P1;SDS_P2;PMS_P1;PMS_P2;Temp;Humidity;BMP_temperature;BMP_pressure;BME280_temperature;BME280_humidity;BME280_pressure;Samples;Min_cycle;Max_cycle;Signal;HPM_P1;HPM_P2
2023/05/14 00:01:41;;;;;;;14.32;11.55;;;12.40;99.90;;;;;;5146366;27;20030;-38
2023/05/14 00:04:07;;;;;;;14.18;10.60;;;12.40;99.90;;;;;;5144266;27;20045;-36
2023/05/14 00:06:32;;;;;;;14.23;11.35;;;12.40;99.90;;;;;;5148654;27;20030;-37
2023/05/14 00:08:58;;;;;;;13.45;11.23;;;12.40;99.90;;;;;;5128154;27;20038;-36
2023/05/14 00:11:24;;;;;;;15.88;11.80;;;12.30;99.90;;;;;;5149667;27;20034;-39
2023/05/14 00:13:50;;;;;;;16.50;11.48;;;12.30;99.90;;;;;;5143094;27;20043;-38
2023/05/14 00:16:15;;;;;;;15.15;11.75;;;12.30;99.90;;;;;;5144345;27;20090;-37
2023/05/14 00:18:41;;;;;;;12.75;11.20;;;12.30;99.90;;;;;;5149800;27;20030;-37
2023/05/14 00:21:07;;;;;;;15.63;12.40;;;12.30;99.90;;;;;;5152286;27;20030;-36
2023/05/14 00:23:32;;;;;;;14.98;11.30;;;12.20;99.90;;;;;;5173326;27;20030;-37
2023/05/14 00:25:58;;;;;;;15.00;11.27;;;12.20;99.90;;;;;;5146055;27;20392;-39
2023/05/14 00:28:24;;;;;;;14.80;11.32;;;12.10;99.90;;;;;;5151070;27;20034;-38
2023/05/14 00:30:50;;;;;;;18.13;12.75;;;12.10;99.90;;;;;;5136028;27;20054;-40
2023/05/14 00:33:16;;;;;;;13.30;12.00;;;12.10;99.90;;;;;;5152460;27;20418;-36
2023/05/14 00:35:42;;;;;;;14.35;11.48;;;12.10;99.90;;;;;;5150158;27;20035;-36
2023/05/14 00:38:08;;;;;;;12.52;11.27;;;12.00;99.90;;;;;;5150477;27;20070;-37
2023/05/14 00:40:34;;;;;;;12.82;11.52;;;12.00;99.90;;;;;;5143199;27;20030;-37
2023/05/14 00:43:00;;;;;;;16.60;12.30;;;11.90;99.90;;;;;;5147954;27;20035;-38
2023/05/14 00:45:26;;;;;;;16.08;11.85;;;11.90;99.90;;;;;;5145933;27;20053;-37
2023/05/14 00:47:52;;;;;;;17.20;12.90;;;11.90;99.90;;;;;;5154042;27;20114;-38
2023/05/14 00:50:19;;;;;;;15.98;11.88;;;11.90;99.90;;;;;;5147953;27;20045;-38
2023/05/14 00:52:46;;;;;;;18.10;12.80;;;11.90;99.90;;;;;;5143201;27;20039;-37
2023/05/14 00:55:15;;;;;;;13.38;11.85;;;11.90;99.90;;;;;;5151087;27;20033;-36
2023/05/14 00:57:41;;;;;;;12.82;11.52;;;11.80;99.90;;;;;;5144521;27;20058;-37
2023/05/14 01:00:07;;;;;;;18.23;11.80;;;11.80;99.90;;;;;;5145866;27;20066;-37
2023/05/14 01:02:33;;;;;;;15.90;12.48;;;11.80;99.90;;;;;;5153189;27;20034;-34
2023/05/14 01:04:59;;;;;;;18.52;11.75;;;11.80;99.90;;;;;;5149029;27;20388;-34
2023/05/14 01:07:28;;;;;;;16.70;12.65;;;11.80;99.90;;;;;;5145567;27;20037;-35
2023/05/14 01:10:02;;;;;;;16.60;13.38;;;11.80;99.90;;;;;;5152011;27;20035;-35
2023/05/14 01:12:41;;;;;;;16.73;12.50;;;11.80;99.90;;;;;;5153770;27;20084;-34
2023/05/14 01:15:20;;;;;;;20.38;14.07;;;11.70;99.90;;;;;;5139810;27;20536;-35
2023/05/14 01:17:52;;;;;;;19.30;15.13;;;11.70;99.90;;;;;;5152075;27;20113;-34
2023/05/14 01:20:18;;;;;;;15.20;12.73;;;11.70;99.90;;;;;;5158705;27;20491;-34
2023/05/14 01:22:44;;;;;;;19.17;14.43;;;11.60;99.90;;;;;;5138886;27;20038;-34
2023/05/14 01:25:10;;;;;;;17.02;12.10;;;11.70;99.90;;;;;;5166832;27;20110;-34
2023/05/14 01:27:45;;;;;;;18.58;12.93;;;11.70;99.90;;;;;;5148974;27;20504;-34
2023/05/14 01:30:44;;;;;;;18.45;14.27;;;11.60;99.90;;;;;;5159385;27;20030;-34
2023/05/14 01:33:12;;;;;;;18.30;13.98;;;11.60;99.90;;;;;;5138401;27;20043;-34
2023/05/14 01:35:39;;;;;;;17.95;13.02;;;11.60;99.90;;;;;;5159125;27;20042;-34
2023/05/14 01:38:08;;;;;;;17.27;13.90;;;11.50;99.90;;;;;;5146321;27;20514;-34
2023/05/14 01:40:35;;;;;;;18.17;13.90;;;11.50;99.90;;;;;;5138646;27;20057;-34
2023/05/14 01:43:02;;;;;;;16.08;13.75;;;11.50;99.90;;;;;;5143610;27;20034;-34
2023/05/14 01:45:29;;;;;;;16.45;12.80;;;11.50;99.90;;;;;;5139478;27;20050;-34
2023/05/14 01:47:55;;;;;;;15.45;13.05;;;11.40;99.90;;;;;;5138052;27;20842;-34
2023/05/14 01:50:21;;;;;;;20.83;14.25;;;11.40;99.90;;;;;;5156250;27;20582;-34
2023/05/14 01:52:47;;;;;;;15.68;13.13;;;11.40;99.90;;;;;;5154551;27;20039;-35
2023/05/14 01:55:14;;;;;;;17.80;14.63;;;11.40;99.90;;;;;;5150110;27;20440;-34
2023/05/14 01:57:40;;;;;;;16.58;13.80;;;11.30;99.90;;;;;;5155203;27;20030;-34
2023/05/14 02:00:06;;;;;;;20.55;14.80;;;11.30;99.90;;;;;;5158813;27;20037;-35
2023/05/14 02:02:32;;;;;;;20.42;15.77;;;11.20;99.90;;;;;;5161747;27;20043;-33
2023/05/14 02:04:58;;;;;;;18.10;13.77;;;11.20;99.90;;;;;;5144802;27;20048;-34
2023/05/14 02:07:24;;;;;;;20.13;15.35;;;11.20;99.90;;;;;;5158484;27;20030;-34
2023/05/14 02:09:49;;;;;;;21.20;15.35;;;11.20;99.90;;;;;;5153491;27;20049;-34
2023/05/14 02:12:15;;;;;;;17.52;14.27;;;11.10;99.90;;;;;;5130727;27;20113;-34
2023/05/14 02:14:41;;;;;;;16.02;13.35;;;11.10;99.90;;;;;;5141756;27;20105;-34
2023/05/14 02:17:07;;;;;;;19.33;13.13;;;11.00;99.90;;;;;;5164695;27;20456;-34
2023/05/14 02:19:32;;;;;;;19.52;14.60;;;11.00;99.90;;;;;;5143999;27;20083;-34
2023/05/14 02:22:00;;;;;;;18.92;13.63;;;10.90;99.90;;;;;;5158125;27;20042;-35
2023/05/14 02:24:26;;;;;;;18.63;13.52;;;10.90;99.90;;;;;;5145527;27;20041;-34
2023/05/14 02:26:51;;;;;;;17.02;13.75;;;10.90;99.90;;;;;;5146654;27;20060;-35
2023/05/14 02:29:17;;;;;;;19.88;14.60;;;10.90;99.90;;;;;;5147136;27;20037;-34
2023/05/14 02:31:43;;;;;;;20.85;13.88;;;10.90;99.90;;;;;;5137646;27;20117;-34
2023/05/14 02:34:09;;;;;;;17.00;13.63;;;10.90;99.90;;;;;;5163600;27;20491;-34
2023/05/14 02:36:35;;;;;;;17.48;13.70;;;10.80;99.90;;;;;;5158104;27;20387;-34
2023/05/14 02:39:01;;;;;;;19.73;14.30;;;10.80;99.90;;;;;;5158227;27;20031;-34
2023/05/14 02:41:26;;;;;;;18.80;13.45;;;10.80;99.90;;;;;;5145266;27;20317;-35
2023/05/14 02:43:53;;;;;;;17.30;13.85;;;10.70;99.90;;;;;;5151624;27;20507;-34
2023/05/14 02:46:19;;;;;;;17.85;14.05;;;10.70;99.90;;;;;;5147337;27;20396;-34
2023/05/14 02:48:44;;;;;;;19.08;15.02;;;10.60;99.90;;;;;;5156887;27;20035;-34
2023/05/14 02:51:11;;;;;;;21.98;14.55;;;10.60;99.90;;;;;;5157555;27;20517;-34
2023/05/14 02:53:36;;;;;;;20.90;14.65;;;10.60;99.90;;;;;;5141382;27;20399;-34
2023/05/14 02:56:02;;;;;;;18.63;14.07;;;10.50;99.90;;;;;;5136856;27;20042;-34
2023/05/14 02:58:28;;;;;;;21.85;14.23;;;10.50;99.90;;;;;;5148941;27;20063;-34
2023/05/14 03:00:54;;;;;;;19.30;14.02;;;10.50;99.90;;;;;;5157475;27;20394;-34
2023/05/14 03:03:20;;;;;;;17.40;13.88;;;10.50;99.90;;;;;;5146456;27;20408;-34
2023/05/14 03:05:46;;;;;;;22.08;14.73;;;10.50;99.90;;;;;;5160944;27;20038;-34
2023/05/14 03:08:12;;;;;;;18.98;14.45;;;10.50;99.90;;;;;;5157449;27;20042;-34
2023/05/14 03:10:37;;;;;;;18.67;13.93;;;10.50;99.90;;;;;;5157286;27;20030;-34
2023/05/14 03:13:03;;;;;;;17.98;15.23;;;10.50;99.90;;;;;;5149925;27;20035;-34
2023/05/14 03:15:29;;;;;;;19.77;14.65;;;10.50;99.90;;;;;;5136566;27;20039;-35
2023/05/14 03:17:55;;;;;;;19.92;14.85;;;10.40;99.90;;;;;;5171023;27;20073;-35
2023/05/14 03:20:23;;;;;;;19.52;14.05;;;10.40;99.90;;;;;;5147275;27;20387;-34
2023/05/14 03:22:49;;;;;;;20.33;15.30;;;10.40;99.90;;;;;;5155552;27;20429;-34
2023/05/14 03:25:15;;;;;;;16.95;13.93;;;10.40;99.90;;;;;;5145899;27;20039;-34
2023/05/14 03:27:40;;;;;;;17.48;13.20;;;10.40;99.90;;;;;;5151281;27;20407;-33
2023/05/14 03:30:10;;;;;;;20.00;14.25;;;10.40;99.90;;;;;;5150276;27;20042;-34
2023/05/14 03:32:36;;;;;;;20.00;15.82;;;10.40;99.90;;;;;;5151737;27;20034;-34
2023/05/14 03:35:02;;;;;;;17.85;15.50;;;10.40;99.90;;;;;;5155469;27;20448;-34
2023/05/14 03:37:28;;;;;;;24.40;15.27;;;10.40;99.90;;;;;;5149260;27;20297;-34
2023/05/14 03:39:53;;;;;;;23.23;16.90;;;10.40;99.90;;;;;;5143843;27;20030;-34
2023/05/14 03:42:19;;;;;;;22.23;15.82;;;10.40;99.90;;;;;;5154075;27;20049;-34
2023/05/14 03:44:45;;;;;;;21.02;15.50;;;10.40;99.90;;;;;;5154649;27;20041;-34
2023/05/14 03:47:11;;;;;;;20.65;15.07;;;10.40;99.90;;;;;;5156708;27;20038;-33
2023/05/14 03:49:36;;;;;;;19.17;14.63;;;10.40;99.90;;;;;;5144889;27;20041;-34
2023/05/14 03:52:02;;;;;;;20.35;15.68;;;10.40;99.90;;;;;;5135887;27;20105;-34
2023/05/14 03:54:28;;;;;;;19.85;15.48;;;10.40;99.90;;;;;;5144916;27;20075;-33
2023/05/14 03:56:54;;;;;;;21.27;14.65;;;10.40;99.90;;;;;;5123577;27;20043;-34
2023/05/14 03:59:19;;;;;;;23.05;16.00;;;10.30;99.90;;;;;;5133467;27;20045;-34
2023/05/14 04:01:45;;;;;;;22.10;15.73;;;10.30;99.90;;;;;;5147492;27;20125;-34
2023/05/14 04:04:11;;;;;;;19.98;15.45;;;10.30;99.90;;;;;;5138563;27;20120;-36
2023/05/14 04:06:37;;;;;;;20.52;15.05;;;10.30;99.90;;;;;;5145058;27;20165;-34
2023/05/14 04:09:02;;;;;;;18.00;14.43;;;10.30;99.90;;;;;;5135539;27;20077;-34
2023/05/14 04:11:28;;;;;;;20.35;15.13;;;10.30;99.90;;;;;;5135449;27;20518;-34
2023/05/14 04:13:55;;;;;;;20.30;15.80;;;10.20;99.90;;;;;;5148012;27;20031;-34
2023/05/14 04:16:20;;;;;;;22.08;16.00;;;10.20;99.90;;;;;;5153481;27;20034;-34
2023/05/14 04:18:46;;;;;;;20.00;15.10;;;10.20;99.90;;;;;;5142914;27;20480;-33
2023/05/14 04:21:12;;;;;;;21.77;15.35;;;10.20;99.90;;;;;;5151480;27;20495;-34
2023/05/14 04:23:37;;;;;;;22.08;16.20;;;10.20;99.90;;;;;;5144917;27;20031;-34
2023/05/14 04:26:04;;;;;;;23.17;16.70;;;10.30;99.90;;;;;;5135103;27;20038;-33
2023/05/14 04:28:30;;;;;;;20.15;15.77;;;10.20;99.90;;;;;;5144605;27;20034;-35
2023/05/14 04:30:56;;;;;;;18.45;13.77;;;10.30;99.90;;;;;;5155782;27;20045;-34
2023/05/14 04:33:22;;;;;;;24.20;15.30;;;10.30;99.90;;;;;;5135397;27;20030;-34
2023/05/14 04:35:48;;;;;;;20.15;15.40;;;10.30;99.90;;;;;;5160544;27;20077;-34
2023/05/14 04:38:15;;;;;;;18.42;15.10;;;10.30;99.90;;;;;;5137253;27;20027;-33
2023/05/14 04:40:41;;;;;;;21.10;15.88;;;10.30;99.90;;;;;;5138788;27;20471;-34
2023/05/14 04:43:07;;;;;;;24.30;16.35;;;10.30;99.90;;;;;;5141001;27;20372;-34
2023/05/14 04:45:33;;;;;;;19.05;16.70;;;10.40;99.90;;;;;;5152515;27;20122;-34
2023/05/14 04:47:58;;;;;;;23.48;16.88;;;10.40;99.90;;;;;;5142273;27;20039;-34
2023/05/14 04:50:25;;;;;;;20.63;15.55;;;10.50;99.90;;;;;;5155847;27;20035;-34
2023/05/14 04:52:51;;;;;;;21.67;16.77;;;10.50;99.90;;;;;;5154053;27;20091;-34
2023/05/14 04:55:16;;;;;;;20.20;15.50;;;10.60;99.90;;;;;;5138738;27;20476;-34
2023/05/14 04:57:42;;;;;;;20.02;15.93;;;10.70;99.90;;;;;;5117204;27;20043;-34
2023/05/14 05:00:09;;;;;;;23.17;16.92;;;10.70;99.90;;;;;;5145957;27;20674;-34
2023/05/14 05:02:35;;;;;;;21.10;15.05;;;10.80;99.90;;;;;;5141242;27;20110;-34
2023/05/14 05:05:01;;;;;;;24.30;17.25;;;10.90;99.90;;;;;;5145258;27;20137;-34
2023/05/14 05:07:27;;;;;;;18.42;14.77;;;11.00;99.90;;;;;;5138781;27;20451;-34
2023/05/14 05:09:53;;;;;;;19.90;15.82;;;11.10;99.90;;;;;;5134822;27;20066;-34
2023/05/14 05:12:20;;;;;;;21.15;16.63;;;11.20;99.90;;;;;;5151998;27;20124;-34
2023/05/14 05:14:46;;;;;;;19.08;14.57;;;11.20;99.90;;;;;;5134715;27;20039;-35
2023/05/14 05:17:11;;;;;;;22.23;16.85;;;11.30;99.90;;;;;;5135526;27;20492;-33
2023/05/14 05:19:37;;;;;;;22.98;16.85;;;11.40;99.90;;;;;;5140954;27;20445;-34
2023/05/14 05:22:10;;;;;;;21.77;16.67;;;11.40;99.90;;;;;;5152263;27;20038;-34
2023/05/14 05:24:36;;;;;;;21.02;16.80;;;11.50;99.90;;;;;;5149806;27;20053;-34
2023/05/14 05:27:04;;;;;;;21.58;15.52;;;11.50;99.90;;;;;;5174211;27;20492;-34
2023/05/14 05:29:30;;;;;;;21.75;16.13;;;11.60;99.90;;;;;;5155381;27;20066;-34
2023/05/14 05:31:56;;;;;;;21.98;16.38;;;11.70;99.90;;;;;;5149354;27;20038;-34
2023/05/14 05:34:22;;;;;;;19.95;16.45;;;11.70;99.90;;;;;;5149045;27;20035;-34
2023/05/14 05:36:47;;;;;;;20.80;16.15;;;11.80;99.90;;;;;;5144569;27;20057;-34
2023/05/14 05:39:13;;;;;;;21.13;16.45;;;11.90;99.90;;;;;;5130797;27;20121;-34
2023/05/14 05:41:39;;;;;;;19.38;16.20;;;12.00;99.90;;;;;;5142339;27;20034;-34
2023/05/14 05:44:05;;;;;;;18.88;15.90;;;12.10;99.90;;;;;;5154014;27;20164;-34
2023/05/14 05:46:31;;;;;;;19.63;15.88;;;12.20;99.90;;;;;;5146487;27;20368;-34
2023/05/14 05:48:57;;;;;;;20.23;16.05;;;12.30;99.90;;;;;;5155795;27;20035;-34
2023/05/14 05:51:22;;;;;;;21.05;15.30;;;12.30;99.90;;;;;;5148065;27;20487;-34
2023/05/14 05:53:49;;;;;;;18.42;15.50;;;12.40;99.90;;;;;;5140076;27;20103;-35
2023/05/14 05:56:14;;;;;;;20.77;15.07;;;12.50;99.90;;;;;;5152999;27;20034;-34
2023/05/14 05:58:40;;;;;;;19.60;15.95;;;12.70;99.90;;;;;;5149802;27;20034;-36
2023/05/14 06:01:06;;;;;;;18.05;13.18;;;12.70;99.90;;;;;;5148323;27;20164;-34
2023/05/14 06:03:32;;;;;;;20.67;15.52;;;12.80;99.90;;;;;;5152161;27;20039;-34
2023/05/14 06:05:57;;;;;;;21.00;13.57;;;12.90;99.90;;;;;;5154221;27;20113;-34
2023/05/14 06:08:23;;;;;;;20.25;14.90;;;13.00;99.90;;;;;;5158822;27;20034;-34
2023/05/14 06:10:49;;;;;;;16.95;14.20;;;13.10;99.90;;;;;;5161699;27;20197;-34
2023/05/14 06:13:15;;;;;;;17.90;13.80;;;13.10;99.90;;;;;;5139716;27;20072;-34
2023/05/14 06:15:40;;;;;;;20.13;13.88;;;13.20;99.90;;;;;;5139046;27;20042;-35
2023/05/14 06:18:06;;;;;;;16.52;13.93;;;13.20;99.90;;;;;;5130634;27;20323;-34
2023/05/14 06:20:32;;;;;;;18.52;14.32;;;13.30;99.90;;;;;;5154924;27;20065;-34
2023/05/14 06:22:58;;;;;;;18.85;13.98;;;13.30;99.90;;;;;;5156943;27;20042;-34
2023/05/14 06:25:24;;;;;;;19.73;13.23;;;13.40;99.90;;;;;;5158345;27;20038;-34
2023/05/14 06:27:49;;;;;;;19.20;14.00;;;13.40;99.90;;;;;;5137046;27;20054;-34
2023/05/14 06:30:15;;;;;;;17.17;13.23;;;13.50;99.90;;;;;;5137427;27;20049;-34
2023/05/14 06:32:41;;;;;;;16.33;13.55;;;13.60;99.90;;;;;;5146143;27;20043;-34
2023/05/14 06:35:07;;;;;;;16.55;13.80;;;13.60;99.90;;;;;;5154417;27;20398;-34
2023/05/14 06:37:33;;;;;;;16.60;13.23;;;13.80;99.90;;;;;;5157835;27;20034;-34
2023/05/14 06:40:00;;;;;;;19.52;13.57;;;13.90;99.90;;;;;;5152409;27;20038;-34
2023/05/14 06:42:26;;;;;;;16.08;12.98;;;14.00;99.90;;;;;;5149778;27;20038;-34
2023/05/14 06:44:51;;;;;;;15.60;13.13;;;14.10;99.90;;;;;;5149744;27;20050;-35
2023/05/14 06:47:17;;;;;;;14.05;12.13;;;14.20;99.90;;;;;;5140687;27;20431;-34
2023/05/14 06:49:57;;;;;;;17.17;13.20;;;14.20;99.90;;;;;;5157125;27;20030;-34
2023/05/14 06:52:23;;;;;;;20.58;13.60;;;14.40;99.90;;;;;;5139427;27;20039;-35
2023/05/14 06:54:49;;;;;;;16.48;12.57;;;14.40;99.90;;;;;;5150854;27;20038;-37
2023/05/14 06:57:14;;;;;;;14.27;12.77;;;14.50;99.90;;;;;;5147137;27;20387;-38
2023/05/14 06:59:40;;;;;;;18.20;13.23;;;14.60;99.90;;;;;;5156826;27;20034;-36
2023/05/14 07:02:06;;;;;;;14.85;12.05;;;14.80;99.90;;;;;;5150411;27;20555;-37
2023/05/14 07:04:32;;;;;;;16.55;12.93;;;14.90;99.90;;;;;;5139635;27;20031;-37
2023/05/14 07:06:57;;;;;;;14.57;12.20;;;15.00;99.90;;;;;;5146564;27;20037;-37
2023/05/14 07:09:23;;;;;;;12.40;11.10;;;15.10;99.90;;;;;;5157218;27;20058;-37
2023/05/14 07:11:49;;;;;;;14.48;12.75;;;15.30;99.90;;;;;;5142175;27;20041;-37
2023/05/14 07:14:15;;;;;;;16.08;12.30;;;15.50;99.90;;;;;;5143479;27;20381;-37
2023/05/14 07:16:41;;;;;;;15.00;12.70;;;15.60;99.90;;;;;;5134675;27;20034;-38
2023/05/14 07:19:07;;;;;;;14.30;11.73;;;15.80;99.90;;;;;;5145855;27;20101;-39
2023/05/14 07:21:34;;;;;;;15.43;13.20;;;16.00;99.90;;;;;;5152624;27;20445;-37
2023/05/14 07:24:00;;;;;;;14.43;11.35;;;16.20;99.90;;;;;;5146284;27;20089;-38
2023/05/14 07:26:26;;;;;;;13.13;10.18;;;16.40;99.90;;;;;;5154566;27;20500;-37
2023/05/14 07:28:51;;;;;;;13.05;10.68;;;16.60;99.90;;;;;;5122542;27;20047;-39
2023/05/14 07:31:17;;;;;;;12.57;11.32;;;16.90;99.90;;;;;;5146645;27;20034;-37
2023/05/14 07:33:43;;;;;;;15.38;11.07;;;17.00;99.90;;;;;;5151941;27;20043;-38
2023/05/14 07:36:08;;;;;;;15.90;11.35;;;17.20;99.90;;;;;;5138490;27;20030;-41
2023/05/14 07:38:34;;;;;;;12.27;10.95;;;17.30;99.90;;;;;;5146072;27;20061;-41
2023/05/14 07:41:00;;;;;;;13.65;11.32;;;17.30;99.90;;;;;;5145039;27;20042;-37
2023/05/14 07:43:26;;;;;;;12.30;11.10;;;17.50;99.90;;;;;;5148440;27;20143;-37
2023/05/14 07:45:51;;;;;;;16.73;11.43;;;17.70;99.90;;;;;;5138363;27;20046;-37
2023/05/14 07:48:17;;;;;;;14.00;10.82;;;17.70;99.90;;;;;;5152040;27;20509;-35
2023/05/14 07:50:44;;;;;;;12.80;11.48;;;17.90;99.90;;;;;;5153493;27;20041;-35
2023/05/14 07:53:10;;;;;;;13.95;11.05;;;18.20;99.90;;;;;;5141868;27;20035;-38
2023/05/14 07:55:35;;;;;;;12.10;10.48;;;18.30;99.90;;;;;;5136115;27;20472;-35
2023/05/14 07:58:01;;;;;;;10.55;9.48;;;18.50;99.90;;;;;;5135642;27;20041;-39
2023/05/14 08:00:27;;;;;;;12.27;9.95;;;18.70;99.90;;;;;;5150134;27;20042;-38
2023/05/14 08:02:54;;;;;;;14.30;10.32;;;18.80;99.90;;;;;;5141783;27;20062;-39
2023/05/14 08:05:20;;;;;;;12.25;10.48;;;18.90;99.90;;;;;;5144028;27;20102;-37
2023/05/14 08:07:46;;;;;;;11.98;10.63;;;19.00;99.90;;;;;;5147604;27;20034;-39
2023/05/14 08:10:11;;;;;;;10.27;9.35;;;18.90;99.90;;;;;;5147815;27;20497;-38
2023/05/14 08:12:38;;;;;;;12.32;10.18;;;18.90;99.90;;;;;;5147448;27;20061;-38
2023/05/14 08:15:06;;;;;;;11.23;9.68;;;18.90;99.90;;;;;;5155485;27;20045;-38
2023/05/14 08:17:32;;;;;;;12.63;10.10;;;19.00;99.90;;;;;;5137832;27;20034;-37
2023/05/14 08:19:58;;;;;;;11.10;9.90;;;19.10;99.90;;;;;;5137629;27;20035;-39
2023/05/14 08:22:23;;;;;;;10.32;9.32;;;19.40;99.90;;;;;;5140907;27;20276;-36
2023/05/14 08:24:49;;;;;;;11.50;9.35;;;19.60;99.90;;;;;;5151288;27;20491;-37
2023/05/14 08:27:15;;;;;;;13.00;10.18;;;19.70;99.90;;;;;;5150674;27;20117;-38
2023/05/14 08:29:41;;;;;;;13.25;10.35;;;20.00;99.90;;;;;;5140432;27;20045;-35
2023/05/14 08:32:08;;;;;;;12.10;9.63;;;20.00;99.90;;;;;;5140909;27;20042;-38
2023/05/14 08:34:33;;;;;;;11.20;9.82;;;20.20;99.90;;;;;;5140154;27;20042;-39
2023/05/14 08:36:59;;;;;;;11.25;10.15;;;20.40;99.90;;;;;;5146402;27;20102;-37
2023/05/14 08:39:25;;;;;;;11.10;9.98;;;20.50;99.90;;;;;;5142941;27;20037;-36
2023/05/14 08:41:51;;;;;;;10.85;9.85;;;20.50;99.90;;;;;;5149296;27;20395;-38
2023/05/14 08:44:38;;;;;;;12.52;10.02;;;20.50;99.90;;;;;;5143957;27;20039;-37
2023/05/14 08:47:04;;;;;;;13.50;8.85;;;20.50;99.90;;;;;;5134652;27;20514;-39
2023/05/14 08:49:40;;;;;;;12.45;11.15;;;20.60;99.90;;;;;;5140069;27;20441;-36
2023/05/14 08:52:07;;;;;;;12.23;11.00;;;20.90;99.90;;;;;;5139565;27;20031;-38
2023/05/14 08:54:33;;;;;;;12.98;10.70;;;21.20;99.90;;;;;;5144938;27;20033;-37
2023/05/14 08:56:59;;;;;;;12.70;10.55;;;21.40;99.90;;;;;;5139182;27;20125;-36
2023/05/14 08:59:25;;;;;;;14.45;11.40;;;21.60;99.90;;;;;;5138745;27;20456;-35
2023/05/14 09:01:52;;;;;;;12.05;10.70;;;21.90;99.90;;;;;;5141154;27;20031;-40
2023/05/14 09:04:23;;;;;;;12.38;11.15;;;22.00;99.90;;;;;;5142476;27;20095;-36
2023/05/14 09:06:50;;;;;;;12.68;11.38;;;22.30;99.90;;;;;;5134669;27;20046;-37
2023/05/14 09:09:17;;;;;;;15.25;12.45;;;22.30;99.90;;;;;;5143264;27;20145;-37
2023/05/14 09:11:46;;;;;;;12.98;11.68;;;22.50;99.90;;;;;;5150279;27;20391;-38
2023/05/14 09:14:12;;;;;;;12.77;11.57;;;22.60;99.90;;;;;;5138846;27;20551;-37
2023/05/14 09:16:41;;;;;;;14.98;11.85;;;22.80;99.90;;;;;;5153879;27;20026;-39
2023/05/14 09:19:07;;;;;;;13.52;12.20;;;22.70;99.90;;;;;;5145840;27;20537;-38
2023/05/14 09:21:33;;;;;;;12.68;11.48;;;22.70;99.90;;;;;;5154545;27;20655;-38
2023/05/14 09:24:00;;;;;;;13.18;11.57;;;22.60;99.90;;;;;;5144232;27;20038;-38
2023/05/14 09:26:30;;;;;;;13.25;11.90;;;22.60;99.90;;;;;;5150793;27;20203;-39
2023/05/14 09:29:03;;;;;;;13.50;12.20;;;22.30;99.90;;;;;;5138226;27;20039;-38
2023/05/14 09:31:31;;;;;;;13.18;11.82;;;22.00;99.90;;;;;;5149925;27;20046;-37
2023/05/14 09:33:57;;;;;;;12.65;11.35;;;21.90;99.90;;;;;;5136402;27;20094;-35
2023/05/14 09:36:24;;;;;;;11.80;10.60;;;21.80;99.90;;;;;;5149963;27;20058;-37
2023/05/14 09:38:50;;;;;;;12.35;11.05;;;21.60;99.90;;;;;;5146658;27;20062;-39
2023/05/14 09:41:15;;;;;;;14.38;11.30;;;21.50;99.90;;;;;;5138726;27;20038;-37
2023/05/14 09:43:41;;;;;;;12.48;11.18;;;21.50;99.90;;;;;;5140680;27;20535;-37
2023/05/14 09:46:07;;;;;;;12.55;10.30;;;21.60;99.90;;;;;;5143523;27;20034;-37
2023/05/14 09:48:33;;;;;;;12.40;10.93;;;22.00;99.90;;;;;;5153775;27;20058;-35
2023/05/14 09:50:59;;;;;;;11.38;10.30;;;22.30;99.90;;;;;;5150403;27;20489;-36
2023/05/14 09:53:24;;;;;;;11.15;10.07;;;22.60;99.90;;;;;;5147916;27;20540;-36
2023/05/14 09:55:50;;;;;;;12.02;10.30;;;23.00;99.90;;;;;;5158911;27;20041;-38
2023/05/14 09:58:16;;;;;;;11.45;10.00;;;23.20;99.90;;;;;;5158877;27;20311;-39
2023/05/14 10:00:46;;;;;;;10.63;9.40;;;23.40;99.90;;;;;;5140698;27;20426;-40
2023/05/14 10:03:14;;;;;;;10.48;9.38;;;23.50;99.90;;;;;;5154206;27;20117;-37
2023/05/14 10:05:41;;;;;;;10.40;9.48;;;23.60;99.90;;;;;;5140699;27;20049;-38
2023/05/14 10:08:20;;;;;;;10.60;9.55;;;24.00;99.90;;;;;;5138389;27;20487;-38
2023/05/14 10:10:49;;;;;;;10.50;8.80;;;24.40;87.20;;;;;;5138591;27;20535;-38
2023/05/14 10:13:19;;;;;;;11.30;7.70;;;24.30;99.90;;;;;;5147735;27;20285;-38
2023/05/14 10:16:08;;;;;;;8.15;7.45;;;24.30;79.40;;;;;;5158307;27;20034;-37
2023/05/14 10:18:42;;;;;;;9.98;7.63;;;24.20;72.30;;;;;;5156627;27;20040;-38
2023/05/14 10:21:10;;;;;;;8.52;7.72;;;24.70;73.60;;;;;;5151044;27;20066;-38
2023/05/14 10:23:37;;;;;;;7.90;6.47;;;25.00;66.80;;;;;;5154435;27;20544;-37
2023/05/14 10:26:07;;;;;;;6.45;5.60;;;25.10;61.70;;;;;;5140575;27;20048;-38
2023/05/14 10:28:34;;;;;;;6.28;5.68;;;25.20;56.30;;;;;;5148924;27;20072;-40
2023/05/14 10:31:00;;;;;;;6.05;5.45;;;25.40;59.80;;;;;;5154855;27;20038;-36
2023/05/14 10:33:26;;;;;;;7.05;6.45;;;25.50;57.90;;;;;;5143506;27;20091;-35
2023/05/14 10:36:06;;;;;;;7.50;5.43;;;25.60;57.60;;;;;;5138750;27;20037;-39
2023/05/14 10:38:34;;;;;;;7.47;6.05;;;25.80;55.70;;;;;;5144283;27;20034;-37
2023/05/14 10:41:20;;;;;;;8.63;7.03;;;26.10;56.00;;;;;;5152817;27;20034;-40
2023/05/14 10:43:46;;;;;;;6.38;5.88;;;26.20;51.10;;;;;;5142952;27;20034;-35
2023/05/14 10:46:15;;;;;;;8.20;7.40;;;26.20;53.40;;;;;;5147721;27;20035;-38
2023/05/14 10:48:42;;;;;;;7.50;6.72;;;26.10;52.70;;;;;;5146895;27;20395;-37
2023/05/14 10:51:10;;;;;;;7.13;6.53;;;26.40;53.00;;;;;;5153642;27;20030;-36
2023/05/14 10:53:39;;;;;;;8.00;6.70;;;26.40;53.10;;;;;;5156009;27;20053;-38
2023/05/14 10:56:09;;;;;;;7.18;6.47;;;26.70;53.30;;;;;;5142096;27;20118;-38
2023/05/14 10:58:40;;;;;;;7.25;5.95;;;26.70;52.20;;;;;;5142238;27;20046;-38
2023/05/14 11:01:07;;;;;;;5.75;5.25;;;27.00;52.60;;;;;;5147929;27;20057;-38
2023/05/14 11:03:40;;;;;;;6.45;5.05;;;27.10;52.40;;;;;;5146388;27;20034;-39
2023/05/14 11:06:06;;;;;;;6.65;4.80;;;27.10;49.80;;;;;;5150697;27;20042;-40
2023/05/14 11:08:32;;;;;;;5.63;4.10;;;27.20;48.40;;;;;;5151579;27;20045;-40
2023/05/14 11:10:59;;;;;;;7.88;5.38;;;27.20;47.50;;;;;;5144225;27;20043;-40
2023/05/14 11:13:28;;;;;;;5.22;4.70;;;27.10;46.70;;;;;;5143514;27;20047;-37
2023/05/14 11:15:55;;;;;;;6.75;6.07;;;27.30;47.80;;;;;;5146241;27;20034;-37
2023/05/14 11:18:29;;;;;;;6.07;5.47;;;27.30;48.10;;;;;;5141152;27;20118;-39
2023/05/14 11:21:01;;;;;;;6.65;5.68;;;27.50;49.20;;;;;;5142403;27;20083;-38
2023/05/14 11:23:27;;;;;;;8.57;6.35;;;27.50;49.10;;;;;;5153644;27;20390;-37
2023/05/14 11:25:55;;;;;;;6.45;5.95;;;27.40;48.50;;;;;;5156802;27;20042;-39
2023/05/14 11:28:25;;;;;;;7.57;6.10;;;27.40;48.20;;;;;;5147180;27;20472;-37
2023/05/14 11:30:52;;;;;;;6.72;5.60;;;27.20;47.40;;;;;;5140440;27;20129;-39
2023/05/14 11:33:19;;;;;;;6.70;6.10;;;27.60;47.70;;;;;;5144768;27;20039;-38
2023/05/14 11:35:46;;;;;;;6.47;5.15;;;27.70;47.90;;;;;;5147754;27;20043;-38
2023/05/14 11:38:20;;;;;;;8.00;6.30;;;28.20;47.90;;;;;;5143229;27;20087;-40
2023/05/14 11:40:55;;;;;;;7.90;5.97;;;28.50;47.20;;;;;;5145348;27;20483;-37
2023/05/14 11:43:27;;;;;;;5.47;4.95;;;28.80;45.40;;;;;;5152330;27;20074;-39
2023/05/14 11:45:53;;;;;;;9.88;4.40;;;29.00;44.60;;;;;;5138657;27;20121;-40
2023/05/14 11:48:20;;;;;;;5.90;4.30;;;29.00;43.40;;;;;;5135664;27;20050;-39
2023/05/14 11:50:51;;;;;;;8.00;4.63;;;28.90;42.80;;;;;;5135724;27;20126;-39
2023/05/14 11:53:28;;;;;;;4.70;4.30;;;28.70;44.30;;;;;;5145607;27;20034;-40
2023/05/14 11:55:56;;;;;;;6.30;4.10;;;28.80;41.70;;;;;;5150278;27;20062;-38
2023/05/14 11:58:23;;;;;;;4.80;4.22;;;28.70;41.80;;;;;;5144034;27;20031;-38
2023/05/14 12:00:54;;;;;;;5.50;5.00;;;28.80;42.30;;;;;;5136602;27;20399;-38
2023/05/14 12:03:28;;;;;;;5.15;4.65;;;29.10;42.40;;;;;;5146186;27;20074;-37
2023/05/14 12:05:57;;;;;;;6.53;4.88;;;29.40;42.70;;;;;;5155792;27;20034;-41
2023/05/14 12:08:30;;;;;;;4.70;4.20;;;29.70;42.50;;;;;;5156031;27;20395;-39
2023/05/14 12:10:58;;;;;;;5.03;3.72;;;30.00;42.40;;;;;;5141295;27;20041;-39
2023/05/14 12:13:31;;;;;;;6.68;4.50;;;30.40;42.40;;;;;;5152675;27;20042;-39
2023/05/14 12:15:59;;;;;;;4.72;3.88;;;30.20;39.10;;;;;;5153647;27;20031;-40
2023/05/14 12:18:27;;;;;;;5.00;4.60;;;30.30;40.50;;;;;;5142902;27;20031;-39
2023/05/14 12:20:53;;;;;;;4.55;4.15;;;30.70;40.40;;;;;;5137267;27;20087;-42
2023/05/14 12:23:25;;;;;;;4.18;3.80;;;30.50;39.60;;;;;;5141201;27;20038;-39
2023/05/14 12:25:51;;;;;;;4.22;3.83;;;30.50;39.90;;;;;;5140809;27;20038;-38
2023/05/14 12:28:18;;;;;;;4.97;4.18;;;30.10;38.80;;;;;;5145693;27;20415;-39
2023/05/14 12:30:46;;;;;;;3.95;3.60;;;30.00;39.70;;;;;;5144322;27;20045;-37